Time;durP1;ratioP1;P1;durP2;ratioP2;P2;SDS_P1;SDS_P2;PMS_P1;PMS_P2;Temp;Humidity;BMP_temperature;BMP_pressure;BME280_temperature;BME280_humidity;BME280_pressure;Samples;Min_cycle;Max_cycle;Signal;HPM_P1;HPM_P2
2022/12/02 00:00:00;;;;;;;30.30;15.30;;;3.50;99.90;;;;;;5032932;28;20448;-74
2022/12/02 00:02:30;;;;;;;27.57;15.00;;;3.50;99.90;;;;;;5031659;28;20443;-75
2022/12/02 00:04:59;;;;;;;33.03;15.37;;;3.50;99.90;;;;;;5032709;28;20451;-76
2022/12/02 00:07:27;;;;;;;34.47;15.90;;;;;;;;;;5032887;28;20448;-75
2022/12/02 00:09:54;;;;;;;28.23;14.07;;;;;;;;;;5032679;28;20488;-75
2022/12/02 00:12:22;;;;;;;30.17;16.00;;;3.40;99.90;;;;;;5032951;28;20448;-75
2022/12/02 00:14:55;;;;;;;28.80;15.00;;;3.40;99.90;;;;;;5032776;28;20454;-75
2022/12/02 00:17:22;;;;;;;27.60;15.63;;;;;;;;;;5031356;28;20471;-78
2022/12/02 00:19:49;;;;;;;31.47;16.03;;;;;;;;;;5032657;28;20435;-74
2022/12/02 00:22:18;;;;;;;28.83;14.73;;;3.40;99.90;;;;;;5032753;28;20452;-74
2022/12/02 00:24:45;;;;;;;27.77;13.77;;;;;;;;;;5032707;28;20494;-75
2022/12/02 00:27:12;;;;;;;28.67;13.97;;;;;;;;;;5032689;28;20452;-75
2022/12/02 00:29:39;;;;;;;32.43;16.17;;;;;;;;;;5032608;28;20461;-75
2022/12/02 00:32:06;;;;;;;25.57;14.70;;;;;;;;;;5031528;28;20443;-76
2022/12/02 00:34:33;;;;;;;28.57;15.70;;;;;;;;;;5032781;28;20454;-77
2022/12/02 00:37:00;;;;;;;27.27;13.77;;;;;;;;;;5032839;28;20455;-75
2022/12/02 00:39:29;;;;;;;30.10;15.80;;;;;;;;;;5036643;28;20973;-75
2022/12/02 00:41:56;;;;;;;29.67;15.83;;;;;;;;;;5036614;28;20451;-75
2022/12/02 00:47:08;;;;;;;28.57;14.13;;;;;;;;;;5035443;28;20450;-74
2022/12/02 00:49:35;;;;;;;31.00;15.53;;;;;;;;;;5036468;28;20459;-79
2022/12/02 00:52:02;;;;;;;29.30;15.87;;;;;;;;;;5036475;28;20451;-74
2022/12/02 00:54:30;;;;;;;34.33;16.73;;;3.40;99.90;;;;;;5036417;28;20447;-75
2022/12/02 00:56:57;;;;;;;27.63;14.77;;;;;;;;;;5036318;28;20809;-78
2022/12/02 00:59:24;;;;;;;27.07;16.70;;;;;;;;;;5036294;28;20450;-75
2022/12/02 01:01:51;;;;;;;29.53;14.60;;;;;;;;;;5036374;28;20811;-75
2022/12/02 01:04:19;;;;;;;30.77;14.83;;;;;;;;;;5035008;28;20499;-74
2022/12/02 01:06:46;;;;;;;27.13;15.50;;;;;;;;;;5036131;28;20454;-78
2022/12/02 01:09:13;;;;;;;35.17;16.47;;;;;;;;;;5035934;28;20990;-75
2022/12/02 01:11:41;;;;;;;32.13;17.20;;;3.40;99.90;;;;;;5036018;28;20470;-75
2022/12/02 01:14:08;;;;;;;26.77;15.20;;;;;;;;;;5035980;28;20450;-74
2022/12/02 01:16:35;;;;;;;37.13;17.23;;;;;;;;;;5035897;28;20471;-75
2022/12/02 01:19:02;;;;;;;32.77;16.77;;;;;;;;;;5034746;28;20456;-74
2022/12/02 01:21:29;;;;;;;36.37;17.93;;;;;;;;;;5035869;28;20440;-75
2022/12/02 01:23:56;;;;;;;30.33;16.20;;;;;;;;;;5035722;28;20854;-75
2022/12/02 01:26:23;;;;;;;32.10;15.90;;;;;;;;;;5035803;28;20451;-75
2022/12/02 01:28:51;;;;;;;27.30;15.13;;;3.30;99.90;;;;;;5035900;28;20444;-79
2022/12/02 01:31:18;;;;;;;32.63;15.70;;;;;;;;;;5035636;28;20461;-74
2022/12/02 01:33:46;;;;;;;34.80;16.40;;;;;;;;;;5034498;28;20447;-74
2022/12/02 01:36:13;;;;;;;29.20;15.30;;;;;;;;;;5035583;28;20451;-77
2022/12/02 01:38:40;;;;;;;32.57;15.10;;;;;;;;;;5035513;28;20444;-76
2022/12/02 01:41:07;;;;;;;25.57;15.63;;;3.40;99.90;;;;;;5035486;28;20461;-75
2022/12/02 01:43:35;;;;;;;28.10;15.90;;;;;;;;;;5035374;28;20566;-75
2022/12/02 01:46:03;;;;;;;31.77;15.57;;;3.40;99.90;;;;;;5035413;28;20799;-75
2022/12/02 01:48:31;;;;;;;29.43;14.67;;;;;;;;;;5034128;28;20466;-77
2022/12/02 01:50:58;;;;;;;33.50;15.83;;;;;;;;;;5034769;28;20453;-75
2022/12/02 01:53:25;;;;;;;34.03;15.73;;;;;;;;;;5035377;28;20459;-76
2022/12/02 01:55:52;;;;;;;31.83;16.63;;;;;;;;;;5035326;28;20474;-76
2022/12/02 01:58:23;;;;;;;28.30;16.00;;;3.40;99.90;;;;;;5035374;28;20447;-75
2022/12/02 02:00:50;;;;;;;29.87;15.67;;;;;;;;;;5035319;28;20462;-74
2022/12/02 02:03:18;;;;;;;31.40;15.27;;;3.30;99.90;;;;;;5033988;28;20487;-80
2022/12/02 02:05:46;;;;;;;30.53;15.23;;;;;;;;;;5035122;28;20450;-77
2022/12/02 02:08:13;;;;;;;39.73;15.60;;;;;;;;;;5035098;28;20443;-75
2022/12/02 02:10:43;;;;;;;31.60;15.27;;;3.30;99.90;;;;;;5034909;28;20950;-74
2022/12/02 02:13:11;;;;;;;37.87;17.47;;;3.30;99.90;;;;;;5035000;28;20447;-75
2022/12/02 02:15:39;;;;;;;31.60;17.20;;;;;;;;;;5035009;28;20486;-74
2022/12/02 02:18:06;;;;;;;32.20;15.17;;;;;;;;;;5033773;28;20443;-77
2022/12/02 02:20:38;;;;;;;38.47;15.30;;;3.30;99.90;;;;;;5034901;28;20443;-79
2022/12/02 02:23:21;;;;;;;28.50;15.93;;;3.30;99.90;;;;;;5034829;28;20443;-79
2022/12/02 02:25:51;;;;;;;34.20;17.73;;;3.30;99.90;;;;;;5034860;28;20448;-75
2022/12/02 02:28:18;;;;;;;35.30;17.17;;;3.30;99.90;;;;;;5034699;28;20444;-75
2022/12/02 02:30:46;;;;;;;35.40;16.13;;;;;;;;;;5034631;28;20447;-78
2022/12/02 02:33:15;;;;;;;33.33;16.57;;;3.30;99.90;;;;;;5033487;28;20440;-77
2022/12/02 02:35:42;;;;;;;36.90;17.27;;;;;;;;;;5034651;28;21016;-75
2022/12/02 02:38:12;;;;;;;38.33;18.03;;;3.30;99.90;;;;;;5034523;28;20439;-75
2022/12/02 02:40:41;;;;;;;34.00;16.57;;;3.30;99.90;;;;;;5034605;28;20447;-75
2022/12/02 02:43:08;;;;;;;33.00;17.13;;;;;;;;;;5034393;28;20799;-75
2022/12/02 02:45:37;;;;;;;32.40;15.60;;;3.30;99.90;;;;;;5034691;28;20474;-74
2022/12/02 02:48:07;;;;;;;30.00;14.70;;;3.30;99.90;;;;;;5033206;28;20447;-79
2022/12/02 02:50:36;;;;;;;33.87;15.97;;;3.30;99.90;;;;;;5034253;28;20447;-76
2022/12/02 02:53:03;;;;;;;28.43;16.10;;;;;;;;;;5034264;28;20455;-75
2022/12/02 02:55:32;;;;;;;28.77;16.10;;;3.30;99.90;;;;;;5034113;28;20459;-75
2022/12/02 02:58:08;;;;;;;32.70;17.13;;;3.30;99.90;;;;;;5033868;28;20841;-75
2022/12/02 03:00:35;;;;;;;32.93;16.37;;;;;;;;;;5033426;28;20451;-76
2022/12/02 03:03:03;;;;;;;29.90;15.90;;;;;;;;;;5032417;28;20452;-75
2022/12/02 03:05:30;;;;;;;33.90;17.60;;;;;;;;;;5033761;28;20504;-75
2022/12/02 03:07:57;;;;;;;39.30;17.93;;;;;;;;;;5033970;28;20459;-77
2022/12/02 03:10:24;;;;;;;36.00;16.53;;;;;;;;;;5033569;28;20475;-78
2022/12/02 03:12:52;;;;;;;37.73;17.50;;;;;;;;;;5033880;28;20447;-75
2022/12/02 03:15:21;;;;;;;34.00;14.80;;;3.40;99.90;;;;;;5033706;28;20594;-75
2022/12/02 03:17:49;;;;;;;30.80;16.50;;;;;;;;;;5032555;28;20447;-75
2022/12/02 03:20:17;;;;;;;28.70;15.70;;;3.40;99.90;;;;;;5033610;28;20452;-74
2022/12/02 03:22:44;;;;;;;34.13;16.50;;;;;;;;;;5033607;28;20448;-75
2022/12/02 03:25:11;;;;;;;30.07;16.20;;;;;;;;;;5033535;28;20502;-74
2022/12/02 03:27:38;;;;;;;33.30;15.57;;;;;;;;;;5033598;28;20470;-76
2022/12/02 03:30:07;;;;;;;30.10;15.97;;;3.30;99.90;;;;;;5033520;28;20813;-78
2022/12/02 03:32:36;;;;;;;31.30;14.57;;;3.30;99.90;;;;;;5032305;28;20462;-75
2022/12/02 03:35:03;;;;;;;30.47;14.40;;;;;;;;;;5033436;28;20452;-75
2022/12/02 03:37:30;;;;;;;34.50;17.27;;;;;;;;;;5033220;28;20452;-75
2022/12/02 03:39:57;;;;;;;38.93;16.00;;;;;;;;;;5033212;28;20444;-75
2022/12/02 03:42:25;;;;;;;38.30;17.47;;;3.30;99.90;;;;;;5033337;28;20450;-79
2022/12/02 03:44:53;;;;;;;30.57;15.70;;;;;;;;;;5033136;28;20986;-77
2022/12/02 03:47:20;;;;;;;28.80;14.90;;;;;;;;;;5032124;28;21315;-75
2022/12/02 03:49:48;;;;;;;27.57;14.20;;;3.20;99.90;;;;;;5033255;28;20457;-75
2022/12/02 03:52:15;;;;;;;35.17;16.33;;;;;;;;;;5033081;28;20451;-75
2022/12/02 03:54:43;;;;;;;32.50;16.30;;;;;;;;;;5033111;28;20478;-77
2022/12/02 03:57:10;;;;;;;31.07;15.43;;;;;;;;;;5033119;28;20443;-74
2022/12/02 03:59:37;;;;;;;36.47;17.60;;;;;;;;;;5033164;28;20854;-75
2022/12/02 04:02:04;;;;;;;36.27;17.20;;;;;;;;;;5032046;28;20447;-75
2022/12/02 04:04:31;;;;;;;31.93;15.83;;;;;;;;;;5032866;28;20491;-75
2022/12/02 04:06:59;;;;;;;29.93;15.73;;;3.20;99.90;;;;;;5033009;28;20455;-77
2022/12/02 04:09:26;;;;;;;29.93;15.47;;;;;;;;;;5032873;28;20487;-74
2022/12/02 04:11:53;;;;;;;33.60;15.67;;;;;;;;;;5032609;28;20454;-75
2022/12/02 04:14:21;;;;;;;31.93;16.57;;;;;;;;;;5032820;28;20455;-76
2022/12/02 04:16:48;;;;;;;30.80;14.23;;;;;;;;;;5032838;28;20458;-78
2022/12/02 04:19:15;;;;;;;28.03;15.33;;;;;;;;;;5031725;28;20451;-75
2022/12/02 04:21:42;;;;;;;29.70;15.53;;;;;;;;;;5032852;28;20447;-79
2022/12/02 04:24:10;;;;;;;29.23;15.33;;;3.20;99.90;;;;;;5032767;28;20478;-74
2022/12/02 04:26:37;;;;;;;30.30;14.70;;;;;;;;;;5032698;28;20448;-75
2022/12/02 04:29:04;;;;;;;26.23;15.00;;;;;;;;;;5032736;28;20539;-75
2022/12/02 04:31:31;;;;;;;32.63;14.90;;;;;;;;;;5032699;28;20465;-75
2022/12/02 04:33:58;;;;;;;34.27;16.63;;;;;;;;;;5050453;28;20954;-75
2022/12/02 04:36:26;;;;;;;31.43;16.57;;;3.20;99.90;;;;;;5052598;28;20453;-74
2022/12/02 04:38:53;;;;;;;27.07;15.97;;;;;;;;;;5052538;28;20453;-77
2022/12/02 04:41:21;;;;;;;34.00;17.23;;;3.20;99.90;;;;;;5052486;28;20482;-75
2022/12/02 04:43:48;;;;;;;36.73;15.77;;;;;;;;;;5052498;28;20449;-79
2022/12/02 04:46:15;;;;;;;22.50;13.97;;;;;;;;;;5052514;28;20948;-74
2022/12/02 04:48:42;;;;;;;29.67;15.80;;;;;;;;;;5051312;28;20454;-75
2022/12/02 04:51:09;;;;;;;33.30;17.77;;;;;;;;;;5052493;28;20450;-75
2022/12/02 04:53:36;;;;;;;35.30;16.40;;;;;;;;;;5052341;28;20465;-74
2022/12/02 04:56:03;;;;;;;28.13;15.23;;;;;;;;;;5052365;28;20454;-79
2022/12/02 04:58:31;;;;;;;34.40;17.00;;;3.10;99.90;;;;;;5052342;28;20465;-75
2022/12/02 05:00:59;;;;;;;29.13;14.37;;;;;;;;;;5052234;28;20450;-74
2022/12/02 05:03:26;;;;;;;40.77;17.60;;;;;;;;;;5051152;28;20449;-77
2022/12/02 05:05:53;;;;;;;40.63;17.10;;;;;;;;;;5052347;28;20857;-75
2022/12/02 05:08:20;;;;;;;28.70;16.60;;;;;;;;;;5052421;28;20450;-75
2022/12/02 05:10:47;;;;;;;36.33;17.20;;;;;;;;;;5052387;28;20454;-75
2022/12/02 05:13:14;;;;;;;37.43;17.40;;;;;;;;;;5052340;28;20797;-75
2022/12/02 05:15:42;;;;;;;34.00;17.83;;;3.30;99.90;;;;;;5052092;28;20477;-74
2022/12/02 05:18:09;;;;;;;29.77;15.37;;;;;;;;;;5050887;28;20447;-75
2022/12/02 05:20:36;;;;;;;33.30;15.53;;;;;;;;;;5052176;28;20829;-75
2022/12/02 05:23:03;;;;;;;37.03;16.60;;;;;;;;;;5052129;28;20447;-75
2022/12/02 05:25:30;;;;;;;28.17;15.50;;;;;;;;;;5054508;28;20485;-79
2022/12/02 05:27:58;;;;;;;33.20;15.43;;;;;;;;;;5055725;28;20450;-76
2022/12/02 05:30:25;;;;;;;38.30;17.47;;;;;;;;;;5055642;28;20446;-80
2022/12/02 05:32:53;;;;;;;36.17;17.23;;;3.30;99.90;;;;;;5054553;28;20454;-75
2022/12/02 05:35:20;;;;;;;40.80;17.57;;;;;;;;;;5055733;28;20446;-75
2022/12/02 05:37:47;;;;;;;37.27;18.60;;;;;;;;;;5055668;28;20442;-74
2022/12/02 05:40:14;;;;;;;33.53;17.40;;;;;;;;;;5055545;28;20822;-80
2022/12/02 05:42:41;;;;;;;31.40;16.33;;;;;;;;;;5055395;28;20948;-74
2022/12/02 05:45:15;;;;;;;38.80;16.63;;;3.20;99.90;;;;;;5055604;28;20490;-78
2022/12/02 05:47:42;;;;;;;29.17;15.63;;;;;;;;;;5054685;28;20469;-75
2022/12/02 05:50:14;;;;;;;30.50;16.37;;;3.20;99.90;;;;;;5055511;28;20531;-79
2022/12/02 05:52:42;;;;;;;40.00;17.47;;;;;;;;;;5055366;28;20447;-76
2022/12/02 05:55:14;;;;;;;36.83;16.73;;;3.20;99.90;;;;;;5055136;28;20808;-79
2022/12/02 05:57:41;;;;;;;34.50;16.93;;;;;;;;;;5054918;28;20504;-77
2022/12/02 06:00:17;;;;;;;34.53;16.33;;;3.20;99.90;;;;;;5055128;28;20526;-79
2022/12/02 06:02:46;;;;;;;34.60;17.03;;;3.20;99.90;;;;;;5053963;28;20450;-79
2022/12/02 06:05:20;;;;;;;33.63;16.20;;;3.20;99.90;;;;;;5056883;28;20489;-80
2022/12/02 06:07:50;;;;;;;36.37;16.20;;;3.20;99.90;;;;;;5056325;28;20456;-80
2022/12/02 06:10:23;;;;;;;35.43;17.50;;;3.20;99.90;;;;;;5054671;28;20485;-80
2022/12/02 06:12:51;;;;;;;36.20;17.47;;;3.20;99.90;;;;;;5054831;28;20457;-80
2022/12/02 06:15:18;;;;;;;33.87;15.00;;;;;;;;;;5057278;28;20564;-75
2022/12/02 06:17:45;;;;;;;37.77;16.60;;;;;;;;;;5053761;28;20454;-79
2022/12/02 06:20:19;;;;;;;33.00;16.13;;;3.20;99.90;;;;;;5054912;28;20457;-80
2022/12/02 06:22:47;;;;;;;27.00;14.53;;;3.20;99.90;;;;;;5055495;28;20450;-78
2022/12/02 06:25:24;;;;;;;30.70;14.63;;;3.20;99.90;;;;;;5056265;28;20524;-79
2022/12/02 06:27:54;;;;;;;33.23;16.60;;;3.30;99.90;;;;;;5058445;28;20460;-79
2022/12/02 06:30:21;;;;;;;37.23;15.30;;;;;;;;;;5055239;28;20443;-79
2022/12/02 06:32:53;;;;;;;26.47;13.33;;;3.20;99.90;;;;;;5053437;28;20450;-78
2022/12/02 06:35:24;;;;;;;24.80;13.30;;;3.20;99.90;;;;;;5056174;28;20461;-77
2022/12/02 06:37:55;;;;;;;29.17;14.57;;;3.30;99.90;;;;;;5056684;28;20442;-78
2022/12/02 06:40:26;;;;;;;23.23;13.07;;;3.20;99.90;;;;;;5054448;28;20449;-78
2022/12/02 06:42:53;;;;;;;29.30;13.43;;;;;;;;;;5054363;28;20442;-78
2022/12/02 06:45:27;;;;;;;25.83;12.80;;;3.30;99.90;;;;;;5054224;28;20505;-76
2022/12/02 06:48:04;;;;;;;20.90;12.30;;;3.50;99.90;;;;;;5053167;28;20446;-74
2022/12/02 06:50:34;;;;;;;28.70;15.63;;;3.70;99.90;;;;;;5054245;28;20845;-75
2022/12/02 06:53:23;;;;;;;23.40;12.20;;;3.50;99.90;;;;;;5054193;28;20446;-74
2022/12/02 06:55:50;;;;;;;25.83;13.03;;;;;;;;;;5054615;28;20450;-76
2022/12/02 06:58:42;;;;;;;35.70;16.80;;;3.30;99.90;;;;;;5054062;28;20972;-77
2022/12/02 07:01:16;;;;;;;25.87;10.90;;;;;;;;;;5054376;28;20445;-76
2022/12/02 07:04:28;;;;;;;24.77;12.80;;;3.10;99.90;;;;;;5059223;28;20473;-76
2022/12/02 07:06:58;;;;;;;22.43;10.10;;;3.20;99.90;;;;;;5054384;28;20850;-81
2022/12/02 07:09:36;;;;;;;23.53;11.60;;;3.20;99.90;;;;;;5054240;28;20474;-79
2022/12/02 07:12:03;;;;;;;23.20;11.60;;;;;;;;;;5054369;28;20812;-80
2022/12/02 07:14:39;;;;;;;15.03;10.07;;;3.20;99.90;;;;;;5053627;28;20476;-76
2022/12/02 07:17:16;;;;;;;18.23;10.23;;;3.20;99.90;;;;;;5053398;28;20469;-78
2022/12/02 07:19:48;;;;;;;18.33;10.83;;;3.20;99.90;;;;;;5053928;28;20443;-78
2022/12/02 07:22:18;;;;;;;21.70;11.27;;;3.20;99.90;;;;;;5053562;28;20447;-80
2022/12/02 07:24:52;;;;;;;27.33;13.40;;;3.20;99.90;;;;;;5054158;28;20560;-80
2022/12/02 07:27:22;;;;;;;22.23;10.77;;;3.20;99.90;;;;;;5053892;28;20507;-78
2022/12/02 07:29:50;;;;;;;22.73;11.20;;;3.20;99.90;;;;;;5053935;28;20446;-78
2022/12/02 07:32:17;;;;;;;25.17;11.37;;;;;;;;;;5059156;28;20443;-76
2022/12/02 07:34:44;;;;;;;29.10;12.73;;;;;;;;;;5056730;28;20814;-77
2022/12/02 07:37:12;;;;;;;26.30;12.60;;;;;;;;;;5053351;28;20447;-77
2022/12/02 07:39:39;;;;;;;24.20;13.00;;;;;;;;;;5053156;28;20451;-76
2022/12/02 07:42:07;;;;;;;37.10;13.80;;;;;;;;;;5053194;28;20537;-85
2022/12/02 07:44:35;;;;;;;33.00;14.40;;;;;;;;;;5053176;28;20449;-84
2022/12/02 07:47:02;;;;;;;29.50;15.27;;;3.30;99.90;;;;;;5050105;28;20474;-79
2022/12/02 07:49:29;;;;;;;31.10;13.20;;;;;;;;;;5049221;28;20446;-77
2022/12/02 07:51:56;;;;;;;33.23;15.10;;;;;;;;;;5052456;28;20462;-83
2022/12/02 07:54:23;;;;;;;36.47;14.93;;;;;;;;;;5052541;28;20446;-81
2022/12/02 07:56:51;;;;;;;40.70;13.70;;;;;;;;;;5052814;28;20455;-79
2022/12/02 07:59:19;;;;;;;35.50;17.00;;;3.20;99.90;;;;;;5052912;28;20455;-79
2022/12/02 08:01:46;;;;;;;29.20;15.87;;;;;;;;;;5052934;28;20469;-79
2022/12/02 08:04:13;;;;;;;36.83;15.67;;;;;;;;;;5051696;28;20447;-86
2022/12/02 08:06:40;;;;;;;31.67;15.13;;;;;;;;;;5052630;28;20490;-79
2022/12/02 08:09:07;;;;;;;33.30;16.20;;;3.30;99.90;;;;;;5052620;28;20486;-78
2022/12/02 08:11:35;;;;;;;34.03;14.83;;;;;;;;;;5052872;28;20826;-78
2022/12/02 08:14:02;;;;;;;32.27;15.43;;;;;;;;;;5052623;28;20471;-77
2022/12/02 08:16:30;;;;;;;33.40;16.70;;;;;;;;;;5052764;28;20457;-78
2022/12/02 08:18:59;;;;;;;29.10;15.00;;;;;;;;;;5051556;28;20443;-78
2022/12/02 08:21:27;;;;;;;33.70;15.83;;;;;;;;;;5052577;28;20446;-79
2022/12/02 08:23:54;;;;;;;34.37;15.57;;;;;;;;;;5052550;28;20937;-80
2022/12/02 08:26:21;;;;;;;30.80;14.53;;;;;;;;;;5052536;28;20494;-78
2022/12/02 08:28:49;;;;;;;39.77;16.87;;;;;;;;;;5052557;28;20443;-80
2022/12/02 08:31:16;;;;;;;47.40;15.60;;;;;;;;;;5052456;28;20442;-78
2022/12/02 08:33:44;;;;;;;40.80;17.10;;;2.40;99.90;;;;;;5051398;28;20457;-77
2022/12/02 08:36:11;;;;;;;41.53;16.60;;;;;;;;;;5052214;28;20453;-79
2022/12/02 08:38:38;;;;;;;44.63;17.37;;;;;;;;;;5052601;28;20477;-80
2022/12/02 08:41:05;;;;;;;37.37;16.20;;;;;;;;;;5053167;28;20478;-84
2022/12/02 08:43:32;;;;;;;44.00;19.53;;;;;;;;;;5052410;28;20442;-80
2022/12/02 08:46:00;;;;;;;38.37;16.00;;;3.30;99.90;;;;;;5052687;28;20498;-85
2022/12/02 08:48:27;;;;;;;42.97;17.70;;;;;;;;;;5055911;28;20446;-85
2022/12/02 08:50:55;;;;;;;66.77;16.67;;;3.30;99.90;;;;;;5057256;28;20446;-77
2022/12/02 08:53:22;;;;;;;37.13;16.00;;;;;;;;;;5052365;28;20451;-78
2022/12/02 08:55:49;;;;;;;40.73;16.37;;;;;;;;;;5052353;28;20457;-83
2022/12/02 08:58:17;;;;;;;36.13;14.70;;;;;;;;;;5052165;28;20461;-78
2022/12/02 09:00:44;;;;;;;36.50;14.70;;;;;;;;;;5055146;28;20439;-78
2022/12/02 09:03:11;;;;;;;29.83;14.53;;;;;;;;;;5054885;28;20460;-76
2022/12/02 09:05:40;;;;;;;32.57;14.73;;;3.30;99.90;;;;;;5056023;28;20486;-80
2022/12/02 09:08:08;;;;;;;32.17;14.40;;;3.40;99.90;;;;;;5055886;28;20450;-84
2022/12/02 09:10:35;;;;;;;30.70;13.37;;;;;;;;;;5055834;28;20482;-78
2022/12/02 09:13:02;;;;;;;35.80;14.77;;;;;;;;;;5055896;28;20474;-75
2022/12/02 09:15:29;;;;;;;29.80;13.83;;;;;;;;;;5055828;28;20454;-79
2022/12/02 09:17:56;;;;;;;26.73;11.80;;;;;;;;;;5054772;28;20451;-85
2022/12/02 09:20:24;;;;;;;34.57;14.87;;;;;;;;;;5055951;28;20457;-74
2022/12/02 09:22:51;;;;;;;24.00;11.47;;;;;;;;;;5056680;28;20938;-88
2022/12/02 09:25:19;;;;;;;27.87;12.87;;;3.50;99.90;;;;;;5056843;28;20486;-76
2022/12/02 09:27:46;;;;;;;25.47;11.30;;;;;;;;;;5056816;28;20457;-88
2022/12/02 09:30:13;;;;;;;25.67;12.50;;;;;;;;;;5056431;28;20449;-88
2022/12/02 09:32:40;;;;;;;20.27;11.30;;;;;;;;;;5055456;28;20455;-78
2022/12/02 09:35:08;;;;;;;24.67;11.13;;;;;;;;;;5056557;28;20444;-81
2022/12/02 09:37:35;;;;;;;22.93;11.63;;;;;;;;;;5056877;28;20803;-89
2022/12/02 09:40:02;;;;;;;25.50;12.40;;;;;;;;;;5056261;28;20447;-77
2022/12/02 09:42:30;;;;;;;26.07;12.13;;;3.50;99.90;;;;;;5055745;28;20450;-77
2022/12/02 09:44:58;;;;;;;21.80;11.73;;;3.60;99.90;;;;;;5055969;28;21072;-90
2022/12/02 09:47:25;;;;;;;22.77;11.67;;;;;;;;;;5054397;28;20462;-77
2022/12/02 09:49:52;;;;;;;19.97;9.97;;;;;;;;;;5055426;28;20446;-78
2022/12/02 09:52:21;;;;;;;33.10;12.17;;;3.60;99.90;;;;;;5055404;28;20446;-81
2022/12/02 09:54:48;;;;;;;29.67;12.17;;;;;;;;;;5055542;28;20938;-84
2022/12/02 09:57:17;;;;;;;25.80;11.00;;;3.50;99.90;;;;;;5055168;28;20962;-77
2022/12/02 09:59:46;;;;;;;24.57;9.83;;;;;;;;;;5055936;28;20451;-77
2022/12/02 10:02:23;;;;;;;23.50;11.13;;;3.60;99.90;;;;;;5054433;28;20460;-78
2022/12/02 10:04:50;;;;;;;18.93;10.60;;;;;;;;;;5055190;28;20458;-80
2022/12/02 10:07:17;;;;;;;19.47;9.93;;;;;;;;;;5054959;28;20857;-78
2022/12/02 10:09:44;;;;;;;20.77;10.80;;;;;;;;;;5054465;28;20474;-81
2022/12/02 10:12:12;;;;;;;18.80;9.67;;;3.60;99.90;;;;;;5055041;28;20439;-78
2022/12/02 10:14:39;;;;;;;21.83;10.93;;;;;;;;;;5054743;28;20965;-77
2022/12/02 10:17:16;;;;;;;15.60;8.33;;;3.10;99.90;;;;;;5054004;28;20458;-76
2022/12/02 10:19:43;;;;;;;20.23;10.17;;;;;;;;;;5054894;28;20468;-79
2022/12/02 10:22:15;;;;;;;21.23;9.63;;;3.50;99.90;;;;;;5055020;28;20455;-76
2022/12/02 10:24:42;;;;;;;19.60;10.80;;;;;;;;;;5054977;28;20459;-81
2022/12/02 10:27:09;;;;;;;21.57;9.57;;;;;;;;;;5052280;28;20506;-81
2022/12/02 10:29:36;;;;;;;22.80;9.83;;;;;;;;;;5054252;28;20953;-76
2022/12/02 10:32:06;;;;;;;19.20;8.97;;;3.60;99.90;;;;;;5053885;28;20451;-79
2022/12/02 10:34:35;;;;;;;18.53;9.70;;;3.50;99.90;;;;;;5053923;28;20447;-77
2022/12/02 10:37:17;;;;;;;18.03;9.10;;;3.60;99.90;;;;;;5054479;28;20449;-79
2022/12/02 10:39:44;;;;;;;16.50;8.43;;;;;;;;;;5054128;28;20937;-76
2022/12/02 10:42:20;;;;;;;14.13;8.10;;;3.60;99.90;;;;;;5045632;28;20455;-78
2022/12/02 10:45:07;;;;;;;14.17;8.83;;;3.60;99.90;;;;;;5032847;28;20482;-77
2022/12/02 10:47:34;;;;;;;17.77;7.97;;;;;;;;;;5033313;28;20582;-77
2022/12/02 10:50:15;;;;;;;16.00;7.67;;;3.60;99.90;;;;;;5035012;28;20470;-79
2022/12/02 10:52:45;;;;;;;15.50;8.57;;;3.70;99.90;;;;;;5034928;28;20809;-79
2022/12/02 10:55:13;;;;;;;20.57;9.47;;;;;;;;;;5035813;28;20447;-79
2022/12/02 10:57:42;;;;;;;18.50;9.70;;;3.70;99.90;;;;;;5052152;28;20980;-87
2022/12/02 11:00:16;;;;;;;14.50;7.70;;;3.70;99.90;;;;;;5053983;28;20447;-83
2022/12/02 11:02:47;;;;;;;14.33;7.50;;;3.50;99.90;;;;;;5052888;28;20449;-82
2022/12/02 11:05:18;;;;;;;13.87;7.90;;;3.60;99.90;;;;;;5053964;28;20454;-77
2022/12/02 11:07:56;;;;;;;18.17;8.40;;;3.60;99.90;;;;;;5053741;28;20486;-78
2022/12/02 11:10:25;;;;;;;12.83;7.70;;;3.40;99.90;;;;;;5043026;28;20485;-82
2022/12/02 11:13:04;;;;;;;14.33;8.57;;;3.60;99.90;;;;;;5033709;28;20478;-76
2022/12/02 11:15:41;;;;;;;13.10;7.17;;;3.60;99.90;;;;;;5035298;28;20447;-75
2022/12/02 11:18:11;;;;;;;12.97;7.80;;;5.00;99.90;;;;;;5032623;28;20501;-82
2022/12/02 11:20:44;;;;;;;15.40;8.43;;;3.70;99.90;;;;;;5033470;28;20440;-78
2022/12/02 11:23:18;;;;;;;13.87;6.63;;;3.60;99.90;;;;;;5032860;28;20451;-77
2022/12/02 11:26:02;;;;;;;15.17;8.63;;;3.60;99.90;;;;;;5033963;28;20444;-78
2022/12/02 11:28:50;;;;;;;16.93;8.77;;;3.80;99.90;;;;;;5032360;28;20473;-78
2022/12/02 11:31:27;;;;;;;17.00;8.60;;;3.70;99.90;;;;;;5033546;28;20459;-77
2022/12/02 11:34:31;;;;;;;15.43;8.20;;;3.70;99.90;;;;;;5035403;28;20444;-78
2022/12/02 11:37:47;;;;;;;13.63;7.87;;;3.60;99.90;;;;;;5033513;28;20498;-83
2022/12/02 11:40:57;;;;;;;13.43;7.20;;;3.60;99.90;;;;;;5034084;28;20460;-86
2022/12/02 11:43:54;;;;;;;15.10;6.93;;;3.60;99.90;;;;;;5034276;28;21001;-79
2022/12/02 11:46:23;;;;;;;14.77;7.20;;;3.60;99.90;;;;;;5047013;28;20489;-88
2022/12/02 11:48:52;;;;;;;13.63;6.70;;;3.60;99.90;;;;;;5059847;28;20457;-78
2022/12/02 11:51:35;;;;;;;12.13;6.27;;;3.60;99.90;;;;;;5044039;28;20431;-85
2022/12/02 11:54:02;;;;;;;11.70;6.10;;;;;;;;;;5036536;28;20457;-88
2022/12/02 11:56:36;;;;;;;15.50;7.17;;;3.60;99.90;;;;;;5036331;28;20428;-92
2022/12/02 11:59:18;;;;;;;10.50;7.10;;;3.60;99.90;;;;;;5035850;28;20442;-78
2022/12/02 12:01:46;;;;;;;11.43;6.40;;;;;;;;;;5035428;28;20451;-84
2022/12/02 12:04:24;;;;;;;11.57;5.90;;;3.70;99.90;;;;;;5033425;28;20475;-80
2022/12/02 12:06:56;;;;;;;14.40;6.90;;;3.60;99.90;;;;;;5035768;28;20613;-81
2022/12/02 12:09:23;;;;;;;8.20;5.17;;;;;;;;;;5033590;28;20480;-81
2022/12/02 12:12:08;;;;;;;11.87;6.20;;;3.60;99.90;;;;;;5034170;28;20480;-78
2022/12/02 12:14:55;;;;;;;9.60;5.80;;;3.60;99.90;;;;;;5035697;28;20823;-80
2022/12/02 12:17:45;;;;;;;9.50;6.20;;;3.60;99.90;;;;;;5033507;28;20542;-82
2022/12/02 12:20:45;;;;;;;9.30;5.50;;;3.60;99.90;;;;;;5034392;28;20962;-81
2022/12/02 12:23:28;;;;;;;10.17;6.00;;;;;;;;;;5032967;28;20970;-84
2022/12/02 12:25:55;;;;;;;8.20;4.73;;;;;;;;;;5034325;28;20512;-86
2022/12/02 12:28:26;;;;;;;12.80;6.50;;;3.50;99.90;;;;;;5034871;28;20478;-89
2022/12/02 12:30:55;;;;;;;9.77;5.37;;;;;;;;;;5035706;28;20456;-80
2022/12/02 12:33:22;;;;;;;12.30;5.90;;;;;;;;;;5036249;28;20473;-80
2022/12/02 12:35:50;;;;;;;7.23;4.60;;;;;;;;;;5039733;28;20505;-79
2022/12/02 12:38:17;;;;;;;9.10;4.90;;;;;;;;;;5038022;28;20491;-77
2022/12/02 12:40:44;;;;;;;5.67;4.27;;;;;;;;;;5037930;28;20470;-79
2022/12/02 12:43:11;;;;;;;8.73;4.40;;;;;;;;;;5037699;28;20448;-79
2022/12/02 12:45:38;;;;;;;6.27;3.67;;;;;;;;;;5037606;28;20447;-79
2022/12/02 12:48:06;;;;;;;5.73;4.07;;;3.40;99.90;;;;;;5041254;28;20502;-76
2022/12/02 12:50:34;;;;;;;7.20;4.33;;;;;;;;;;5040974;28;20451;-80
2022/12/02 12:53:01;;;;;;;7.60;4.50;;;;;;;;;;5037801;28;20454;-86
2022/12/02 12:55:30;;;;;;;5.87;3.53;;;3.50;99.90;;;;;;5039603;28;20458;-80
2022/12/02 12:57:57;;;;;;;6.13;3.93;;;;;;;;;;5038163;28;20490;-89
2022/12/02 13:00:24;;;;;;;6.73;2.70;;;;;;;;;;5039679;28;20439;-91
2022/12/02 13:02:52;;;;;;;9.90;4.30;;;;;;;;;;5038829;28;20474;-83
2022/12/02 13:05:20;;;;;;;5.57;3.50;;;3.50;99.90;;;;;;5041235;28;20446;-89
2022/12/02 13:07:47;;;;;;;5.90;3.47;;;;;;;;;;5042557;28;20482;-89
2022/12/02 13:10:14;;;;;;;7.17;4.23;;;;;;;;;;5037817;28;20479;-79
2022/12/02 13:12:41;;;;;;;4.90;3.40;;;;;;;;;;5037479;28;20471;-83
2022/12/02 13:15:09;;;;;;;5.90;3.30;;;5.70;99.90;;;;;;5037500;28;20939;-80
2022/12/02 13:17:36;;;;;;;4.67;4.17;;;;;;;;;;5036754;28;20475;-81
2022/12/02 13:20:03;;;;;;;5.40;3.03;;;;;;;;;;5037841;28;20452;-82
2022/12/02 13:22:31;;;;;;;5.77;4.07;;;3.50;99.90;;;;;;5037436;28;20996;-79
2022/12/02 13:24:58;;;;;;;5.40;3.87;;;;;;;;;;5037761;28;20469;-92
2022/12/02 13:27:26;;;;;;;5.17;3.27;;;;;;;;;;5040308;28;20497;-86
2022/12/02 13:29:53;;;;;;;6.10;3.07;;;;;;;;;;5039529;28;20452;-89
2022/12/02 13:32:20;;;;;;;3.30;2.53;;;;;;;;;;5037730;28;21055;-93
2022/12/02 13:34:47;;;;;;;5.13;3.50;;;;;;;;;;5037326;28;21031;-88
2022/12/02 13:37:16;;;;;;;6.97;3.60;;;;;;;;;;5050959;28;20541;-87
2022/12/02 13:39:44;;;;;;;4.30;3.27;;;;;;;;;;5058790;28;20451;-81
2022/12/02 13:42:11;;;;;;;6.17;3.13;;;;;;;;;;5059599;28;20455;-85
2022/12/02 13:44:38;;;;;;;4.57;2.57;;;;;;;;;;5058608;28;20457;-83
2022/12/02 13:47:05;;;;;;;3.97;3.07;;;;;;;;;;5060289;28;20501;-79
2022/12/02 13:49:33;;;;;;;4.73;3.17;;;;;;;;;;5059592;28;20453;-82
2022/12/02 13:52:00;;;;;;;3.60;2.90;;;;;;;;;;5059390;28;20442;-85
2022/12/02 13:54:27;;;;;;;5.27;3.57;;;;;;;;;;5062254;28;20447;-81